Time;durP1;ratioP1;P1;durP2;ratioP2;P2;SDS_P1;SDS_P2;PMS_P1;PMS_P2;Temp;Humidity;BMP_temperature;BMP_pressure;BME280_temperature;BME280_humidity;BME280_pressure;Samples;Min_cycle;Max_cycle;Signal;HPM_P1;HPM_P2
2022/06/15 00:00:33;;;;;;;2.22;1.10;;;;;;;;;;5093069;28;20039;-56
2022/06/15 00:02:59;;;;;;;3.40;1.05;;;23.70;90.70;;;;;;5092820;28;20575;-54
2022/06/15 00:05:25;;;;;;;2.25;0.80;;;;;;;;;;5093101;28;20036;-54
2022/06/15 00:07:52;;;;;;;1.83;0.88;;;;;;;;;;5093043;28;20024;-55
2022/06/15 00:10:19;;;;;;;1.33;0.90;;;23.80;56.10;;;;;;5093225;28;20036;-55
2022/06/15 00:12:45;;;;;;;2.10;1.00;;;23.40;90.90;;;;;;5092854;28;20077;-60
2022/06/15 00:15:11;;;;;;;1.70;0.73;;;;;;;;;;5092934;28;20032;-60
2022/06/15 00:17:37;;;;;;;0.90;0.80;;;;;;;;;;5092813;28;20020;-60
2022/06/15 00:20:03;;;;;;;2.20;0.95;;;23.40;85.50;;;;;;5092728;28;20551;-60
2022/06/15 00:22:29;;;;;;;1.92;0.90;;;23.40;90.50;;;;;;5092733;28;20020;-60
2022/06/15 00:24:54;;;;;;;1.40;0.75;;;23.10;78.70;;;;;;5092767;28;20034;-60
2022/06/15 00:27:20;;;;;;;2.15;0.98;;;;;;;;;;5092658;28;20020;-60
2022/06/15 00:29:46;;;;;;;2.22;0.80;;;;;;;;;;5092791;28;20056;-55
2022/06/15 00:32:12;;;;;;;1.60;0.93;;;;;;;;;;5092652;28;20106;-55
2022/06/15 00:34:38;;;;;;;2.45;1.02;;;;;;;;;;5092596;28;20032;-53
2022/06/15 00:37:05;;;;;;;1.45;1.00;;;;;;;;;;5092586;28;20077;-55
2022/06/15 00:39:32;;;;;;;1.60;1.13;;;23.00;90.20;;;;;;5092736;28;20130;-54
2022/06/15 00:41:58;;;;;;;1.58;1.00;;;23.40;60.00;;;;;;5092588;28;20020;-55
2022/06/15 00:44:24;;;;;;;2.05;0.85;;;;;;;;;;5092428;28;20532;-55
2022/06/15 00:46:55;;;;;;;1.02;0.90;;;23.60;55.90;;;;;;5092418;28;20024;-56
2022/06/15 00:49:32;;;;;;;1.33;0.80;;;23.50;56.10;;;;;;5092779;28;20052;-56
2022/06/15 00:52:05;;;;;;;1.50;0.77;;;23.50;56.20;;;;;;5092495;28;20032;-55
2022/06/15 00:54:31;;;;;;;1.45;1.00;;;;;;;;;;5092377;28;20026;-55
2022/06/15 00:56:57;;;;;;;2.22;1.00;;;23.20;90.80;;;;;;5092328;28;20070;-55
2022/06/15 00:59:32;;;;;;;1.75;0.88;;;23.50;90.70;;;;;;5092243;28;20040;-55
2022/06/15 01:01:58;;;;;;;1.38;0.90;;;;;;;;;;5092270;28;20448;-55
2022/06/15 01:04:30;;;;;;;1.85;0.88;;;23.50;55.40;;;;;;5092537;28;20059;-55
2022/06/15 01:07:08;;;;;;;1.13;0.90;;;23.40;90.70;;;;;;5092231;28;20048;-54
2022/06/15 01:09:42;;;;;;;2.00;0.80;;;23.50;55.40;;;;;;5092258;28;20103;-55
2022/06/15 01:12:26;;;;;;;2.22;1.20;;;23.50;90.60;;;;;;5092311;28;20027;-55
2022/06/15 01:15:21;;;;;;;1.33;0.80;;;23.40;90.50;;;;;;5092238;28;20032;-55
2022/06/15 01:17:59;;;;;;;0.88;0.88;;;23.00;90.40;;;;;;5092216;28;20035;-55
2022/06/15 01:20:30;;;;;;;1.10;0.70;;;23.50;90.60;;;;;;5092319;28;20418;-54
2022/06/15 01:23:37;;;;;;;1.27;0.90;;;23.50;55.90;;;;;;5092133;28;20021;-55
2022/06/15 01:26:34;;;;;;;1.10;0.88;;;23.40;66.20;;;;;;5096200;28;20029;-55
2022/06/15 01:29:23;;;;;;;1.25;0.95;;;23.80;91.10;;;;;;5096105;28;20359;-54
2022/06/15 01:32:14;;;;;;;1.52;1.00;;;23.70;73.50;;;;;;5096019;28;20032;-55
2022/06/15 01:34:57;;;;;;;0.75;0.70;;;23.80;90.80;;;;;;5096031;28;20093;-55
2022/06/15 01:37:40;;;;;;;1.42;1.08;;;23.50;85.90;;;;;;5095977;28;20472;-55
2022/06/15 01:40:22;;;;;;;1.17;0.95;;;23.60;90.70;;;;;;5095876;28;20039;-54
2022/06/15 01:42:53;;;;;;;2.53;1.10;;;23.70;90.70;;;;;;5095966;28;20024;-55
2022/06/15 01:45:23;;;;;;;2.28;1.38;;;23.50;90.80;;;;;;5096169;28;20020;-54
2022/06/15 01:47:51;;;;;;;2.10;1.10;;;23.40;55.70;;;;;;5095781;28;20469;-56
2022/06/15 01:50:23;;;;;;;1.30;0.80;;;23.50;90.90;;;;;;5095734;28;20387;-54
2022/06/15 01:53:31;;;;;;;2.67;1.02;;;23.30;90.50;;;;;;5095680;28;20039;-55
2022/06/15 01:56:06;;;;;;;1.30;0.90;;;23.30;55.20;;;;;;5081894;28;20047;-54
2022/06/15 01:58:35;;;;;;;2.65;1.42;;;23.40;55.00;;;;;;5095554;28;20028;-54
2022/06/15 02:01:21;;;;;;;2.17;0.95;;;23.40;55.20;;;;;;5095477;28;20123;-52
2022/06/15 02:04:08;;;;;;;0.85;0.80;;;23.50;62.80;;;;;;5095307;28;20048;-55
2022/06/15 02:06:48;;;;;;;2.67;1.00;;;23.30;51.90;;;;;;5095422;28;20036;-55
2022/06/15 02:09:26;;;;;;;1.92;1.08;;;23.40;90.60;;;;;;5095418;28;20016;-55
2022/06/15 02:11:51;;;;;;;0.90;0.60;;;23.30;90.60;;;;;;5095299;28;20028;-55
2022/06/15 02:14:19;;;;;;;1.45;1.05;;;23.60;90.90;;;;;;5095233;28;20020;-55
2022/06/15 02:16:53;;;;;;;0.93;0.85;;;23.20;90.60;;;;;;5095201;28;20024;-54
2022/06/15 02:19:25;;;;;;;2.35;1.05;;;23.40;55.30;;;;;;5095140;28;20234;-60
2022/06/15 02:21:53;;;;;;;1.38;0.70;;;23.30;55.20;;;;;;5095092;28;20028;-60
2022/06/15 02:24:21;;;;;;;1.75;1.10;;;23.60;90.60;;;;;;5095078;28;20471;-60
2022/06/15 02:26:48;;;;;;;2.28;0.95;;;23.40;90.70;;;;;;5094979;28;20028;-60
2022/06/15 02:29:17;;;;;;;1.73;0.95;;;23.10;90.90;;;;;;5095215;28;20409;-60
2022/06/15 02:31:43;;;;;;;1.42;0.95;;;23.40;90.80;;;;;;5095171;28;20084;-60
2022/06/15 02:34:09;;;;;;;1.95;1.13;;;;;;;;;;5094504;28;20024;-60
2022/06/15 02:36:35;;;;;;;2.10;0.88;;;23.40;90.40;;;;;;5094868;28;20040;-60
2022/06/15 02:39:02;;;;;;;1.05;0.80;;;23.40;87.00;;;;;;5094729;28;20386;-60
2022/06/15 02:41:28;;;;;;;1.55;0.80;;;;;;;;;;5094770;28;20032;-60
2022/06/15 02:43:56;;;;;;;1.85;0.90;;;23.50;58.30;;;;;;5094654;28;20505;-60
2022/06/15 02:46:24;;;;;;;1.50;1.00;;;23.30;55.40;;;;;;5094694;28;20032;-60
2022/06/15 02:48:50;;;;;;;1.15;0.98;;;23.20;90.60;;;;;;5094587;28;20016;-60
2022/06/15 02:51:32;;;;;;;1.95;1.15;;;23.00;90.60;;;;;;5094842;28;20028;-60
2022/06/15 02:54:06;;;;;;;2.67;1.00;;;23.60;90.90;;;;;;5094527;28;20016;-60
2022/06/15 02:56:33;;;;;;;2.00;0.70;;;;;;;;;;5094494;28;20043;-56
2022/06/15 02:58:59;;;;;;;1.63;0.75;;;;;;;;;;5094336;28;20077;-55
2022/06/15 03:01:26;;;;;;;2.17;1.02;;;;;;;;;;5094294;28;20028;-55
2022/06/15 03:03:51;;;;;;;2.45;1.15;;;23.40;90.90;;;;;;5094069;28;20048;-55
2022/06/15 03:06:18;;;;;;;1.13;1.02;;;23.50;91.00;;;;;;5094266;28;20028;-55
2022/06/15 03:08:45;;;;;;;2.05;1.00;;;;;;;;;;5094221;28;20061;-54
2022/06/15 03:11:11;;;;;;;1.65;0.93;;;;;;;;;;5094122;28;20039;-55
2022/06/15 03:13:37;;;;;;;1.35;0.88;;;23.40;90.50;;;;;;5094146;28;20016;-55
2022/06/15 03:16:04;;;;;;;2.30;1.23;;;22.90;90.40;;;;;;5094138;28;20107;-53
2022/06/15 03:18:30;;;;;;;3.47;0.80;;;23.20;90.70;;;;;;5094082;28;20051;-55
2022/06/15 03:21:00;;;;;;;3.40;1.10;;;22.80;51.70;;;;;;5093889;28;20036;-54
2022/06/15 03:23:27;;;;;;;1.08;0.77;;;;;;;;;;5093961;28;20035;-55
2022/06/15 03:25:57;;;;;;;1.95;0.90;;;23.10;52.10;;;;;;5093880;28;20028;-54
2022/06/15 03:28:23;;;;;;;1.15;1.00;;;;;;;;;;5094043;28;20024;-55
2022/06/15 03:30:50;;;;;;;2.20;0.85;;;22.90;90.40;;;;;;5094012;28;20406;-55
2022/06/15 03:33:16;;;;;;;1.38;1.00;;;23.10;90.50;;;;;;5093761;28;20016;-55
2022/06/15 03:35:42;;;;;;;1.05;0.93;;;23.40;90.50;;;;;;5093782;28;20032;-56
2022/06/15 03:38:09;;;;;;;1.52;1.08;;;;;;;;;;5093607;28;20023;-55
2022/06/15 03:40:40;;;;;;;1.48;1.00;;;23.20;75.00;;;;;;5093440;28;20035;-54
2022/06/15 03:43:06;;;;;;;1.20;1.10;;;23.60;90.60;;;;;;5093791;28;20024;-54
2022/06/15 03:45:31;;;;;;;0.77;0.70;;;23.30;90.60;;;;;;5093426;28;20039;-53
2022/06/15 03:47:57;;;;;;;1.85;1.00;;;23.40;90.70;;;;;;5092787;28;20032;-54
2022/06/15 03:50:25;;;;;;;2.30;1.15;;;23.10;55.50;;;;;;5093359;28;20024;-55
2022/06/15 03:52:51;;;;;;;1.25;1.05;;;;;;;;;;5093361;28;20394;-55
2022/06/15 03:55:17;;;;;;;1.52;1.15;;;23.10;90.70;;;;;;5093525;28;20028;-55
2022/06/15 03:57:43;;;;;;;1.15;1.00;;;23.00;90.60;;;;;;5093266;28;20459;-56
2022/06/15 04:00:13;;;;;;;0.88;0.80;;;23.40;90.70;;;;;;5093115;28;20039;-55
2022/06/15 04:02:39;;;;;;;1.30;0.63;;;23.40;90.80;;;;;;5092985;28;20051;-54
2022/06/15 04:05:05;;;;;;;1.10;1.00;;;23.10;87.70;;;;;;5093331;28;20024;-56
2022/06/15 04:10:16;;;;;;;1.52;0.70;;;22.60;90.40;;;;;;5093434;28;20069;-55
2022/06/15 04:12:45;;;;;;;3.80;0.70;;;23.30;90.70;;;;;;5093100;28;20032;-55
2022/06/15 04:15:11;;;;;;;1.30;1.00;;;23.30;91.00;;;;;;5093150;28;20024;-55
2022/06/15 04:17:37;;;;;;;1.15;0.95;;;23.10;90.80;;;;;;5092888;28;20278;-55
2022/06/15 04:22:49;;;;;;;2.35;0.95;;;22.70;90.40;;;;;;5093149;28;20039;-55
2022/06/15 04:25:15;;;;;;;0.88;0.80;;;23.20;90.50;;;;;;5092982;28;20032;-54
2022/06/15 04:27:41;;;;;;;2.63;0.90;;;23.30;65.90;;;;;;5092736;28;20024;-55
2022/06/15 04:30:07;;;;;;;3.28;1.25;;;23.10;90.10;;;;;;5093065;28;20020;-55
2022/06/15 04:32:33;;;;;;;1.25;0.98;;;;;;;;;;5092559;28;20028;-55
2022/06/15 04:34:59;;;;;;;1.25;0.70;;;23.10;90.50;;;;;;5092691;28;20031;-55
2022/06/15 04:37:25;;;;;;;1.20;0.90;;;;;;;;;;5092536;28;20474;-55
2022/06/15 04:39:51;;;;;;;1.65;0.98;;;23.30;90.90;;;;;;5092793;28;20032;-55
2022/06/15 04:42:17;;;;;;;2.08;1.00;;;;;;;;;;5092569;28;20020;-55
2022/06/15 04:44:43;;;;;;;1.58;0.98;;;;;;;;;;5092482;28;20031;-55
2022/06/15 04:47:09;;;;;;;2.92;1.13;;;23.10;65.70;;;;;;5092564;28;20081;-52
2022/06/15 04:49:35;;;;;;;1.75;1.00;;;22.70;90.50;;;;;;5092427;28;20042;-55
2022/06/15 04:52:00;;;;;;;1.58;1.23;;;22.90;72.90;;;;;;5092396;28;20099;-53
2022/06/15 04:54:27;;;;;;;1.02;0.80;;;;;;;;;;5092277;28;20028;-55
2022/06/15 04:56:53;;;;;;;1.15;0.73;;;;;;;;;;5092346;28;20032;-55
2022/06/15 04:59:19;;;;;;;1.50;0.93;;;;;;;;;;5092114;28;20036;-54
2022/06/15 05:01:45;;;;;;;3.17;0.82;;;;;;;;;;5091990;28;20063;-55
2022/06/15 05:04:10;;;;;;;1.45;1.05;;;22.70;71.90;;;;;;5092495;28;20035;-55
2022/06/15 05:06:38;;;;;;;1.13;0.95;;;23.00;55.90;;;;;;5092350;28;20036;-54
2022/06/15 05:09:06;;;;;;;1.77;0.80;;;22.80;55.40;;;;;;5092467;28;20027;-55
2022/06/15 05:11:32;;;;;;;1.90;1.05;;;;;;;;;;5092145;28;20414;-56
2022/06/15 05:13:57;;;;;;;1.95;0.90;;;22.60;90.60;;;;;;5092254;28;20058;-56
2022/06/15 05:16:24;;;;;;;1.70;1.38;;;23.30;90.80;;;;;;5092195;28;20126;-55
2022/06/15 05:18:50;;;;;;;3.30;0.90;;;23.10;90.70;;;;;;5092404;28;20021;-56
2022/06/15 05:21:15;;;;;;;1.33;0.82;;;22.90;90.80;;;;;;5092399;28;20031;-55
2022/06/15 05:23:41;;;;;;;1.20;0.90;;;23.00;90.70;;;;;;5092061;28;20020;-60
2022/06/15 05:26:07;;;;;;;1.83;0.85;;;;;;;;;;5092424;28;20027;-60
2022/06/15 05:28:33;;;;;;;1.70;1.10;;;;;;;;;;5092062;28;20028;-60
2022/06/15 05:31:13;;;;;;;4.43;1.00;;;23.00;90.80;;;;;;5092015;28;20103;-59
2022/06/15 05:33:40;;;;;;;1.38;1.00;;;;;;;;;;5092092;28;20028;-60
2022/06/15 05:36:10;;;;;;;1.05;0.90;;;23.30;56.30;;;;;;5092249;28;20429;-60
2022/06/15 05:38:36;;;;;;;1.38;0.90;;;23.40;91.30;;;;;;5091971;28;20032;-60
2022/06/15 05:41:03;;;;;;;0.80;0.80;;;23.30;90.90;;;;;;5091925;28;20585;-60
2022/06/15 05:43:29;;;;;;;2.40;1.27;;;23.20;65.90;;;;;;5091923;28;20501;-60
2022/06/15 05:45:55;;;;;;;3.10;1.20;;;23.00;91.00;;;;;;5091910;28;20028;-60
2022/06/15 05:48:21;;;;;;;1.92;0.90;;;23.60;90.90;;;;;;5091847;28;20074;-59
2022/06/15 05:50:47;;;;;;;1.98;0.77;;;;;;;;;;5091749;28;20028;-60
2022/06/15 05:53:13;;;;;;;2.78;0.80;;;;;;;;;;5091852;28;20060;-60
2022/06/15 05:55:39;;;;;;;4.22;0.93;;;;;;;;;;5091810;28;20063;-60
2022/06/15 05:58:05;;;;;;;1.48;0.90;;;;;;;;;;5091792;28;20435;-60
2022/06/15 06:00:31;;;;;;;1.83;0.98;;;;;;;;;;5091912;28;20040;-60
2022/06/15 06:02:57;;;;;;;1.45;0.90;;;23.00;90.70;;;;;;5091531;28;20068;-60
2022/06/15 06:05:23;;;;;;;3.08;1.42;;;23.20;90.80;;;;;;5091735;28;20083;-60
2022/06/15 06:07:49;;;;;;;4.32;1.13;;;23.30;77.10;;;;;;5091586;28;20502;-60
2022/06/15 06:10:15;;;;;;;2.60;0.73;;;;;;;;;;5093307;28;20040;-61
2022/06/15 06:12:41;;;;;;;1.45;0.90;;;;;;;;;;5095215;28;20490;-60
2022/06/15 06:15:07;;;;;;;1.52;0.80;;;23.30;91.10;;;;;;5095469;28;20433;-60
2022/06/15 06:17:33;;;;;;;1.17;0.90;;;23.30;91.00;;;;;;5095234;28;20019;-60
2022/06/15 06:19:59;;;;;;;2.10;0.90;;;;;;;;;;5095374;28;20450;-60
2022/06/15 06:22:25;;;;;;;1.27;1.08;;;;;;;;;;5095160;28;20028;-60
2022/06/15 06:24:51;;;;;;;4.90;1.35;;;;;;;;;;5095040;28;20085;-60
2022/06/15 06:27:17;;;;;;;1.40;1.00;;;22.90;55.10;;;;;;5095008;28;20099;-61
2022/06/15 06:29:43;;;;;;;1.25;0.98;;;;;;;;;;5094863;28;20030;-60
2022/06/15 06:32:13;;;;;;;3.10;1.00;;;23.40;91.00;;;;;;5095121;28;20031;-60
2022/06/15 06:34:39;;;;;;;4.10;1.05;;;23.20;91.30;;;;;;5094895;28;20425;-60
2022/06/15 06:37:07;;;;;;;4.45;1.70;;;23.20;86.10;;;;;;5094973;28;20024;-59
2022/06/15 06:39:33;;;;;;;2.40;0.95;;;;;;;;;;5094984;28;20359;-59
2022/06/15 06:42:01;;;;;;;4.28;0.90;;;23.00;88.80;;;;;;5094663;28;20111;-58
2022/06/15 06:44:27;;;;;;;5.88;1.23;;;23.50;90.90;;;;;;5094612;28;20028;-59
2022/06/15 06:46:53;;;;;;;5.43;1.05;;;23.20;90.90;;;;;;5094579;28;20024;-59
2022/06/15 06:49:21;;;;;;;7.80;0.90;;;23.10;90.90;;;;;;5076641;28;20055;-59
2022/06/15 06:51:47;;;;;;;1.15;0.80;;;;;;;;;;5094420;28;20039;-59
2022/06/15 06:54:15;;;;;;;1.50;0.90;;;23.40;90.90;;;;;;5094463;28;20077;-59
2022/06/15 06:56:41;;;;;;;2.55;0.80;;;23.10;90.70;;;;;;5094580;28;20028;-58
2022/06/15 06:59:09;;;;;;;0.88;0.80;;;23.10;83.80;;;;;;5094215;28;20024;-58
2022/06/15 07:01:36;;;;;;;2.78;0.82;;;23.20;56.10;;;;;;5094164;28;20032;-58
2022/06/15 07:04:02;;;;;;;2.15;0.80;;;;;;;;;;5094204;28;20040;-58
2022/06/15 07:06:29;;;;;;;4.13;0.75;;;;;;;;;;5094256;28;20390;-58
2022/06/15 07:08:56;;;;;;;3.22;0.80;;;23.10;55.90;;;;;;5094063;28;20036;-58
2022/06/15 07:11:22;;;;;;;6.53;0.77;;;23.30;91.10;;;;;;5093977;28;20062;-58
2022/06/15 07:13:48;;;;;;;3.88;1.10;;;23.10;54.70;;;;;;5094046;28;20028;-59
2022/06/15 07:16:18;;;;;;;1.80;0.90;;;22.90;90.60;;;;;;5094062;28;20034;-58
2022/06/15 07:18:45;;;;;;;1.55;0.60;;;22.90;89.10;;;;;;5093958;28;20024;-58
2022/06/15 07:21:15;;;;;;;5.28;0.95;;;23.40;90.60;;;;;;5092664;28;20036;-58
2022/06/15 07:23:43;;;;;;;0.95;0.70;;;23.00;55.50;;;;;;5093951;28;20093;-58
2022/06/15 07:26:13;;;;;;;12.48;0.90;;;25.40;56.80;;;;;;5093758;28;20040;-58
2022/06/15 07:28:40;;;;;;;4.20;1.00;;;23.30;59.70;;;;;;5093674;28;20492;-58
2022/06/15 07:31:06;;;;;;;3.13;0.77;;;23.20;90.70;;;;;;5094016;28;20066;-58
2022/06/15 07:33:37;;;;;;;4.60;0.80;;;23.20;52.70;;;;;;5093767;28;20027;-59
2022/06/15 07:36:03;;;;;;;2.45;1.05;;;23.50;56.00;;;;;;5093833;28;20408;-59
2022/06/15 07:38:29;;;;;;;1.00;0.75;;;;;;;;;;5093637;28;20028;-59
2022/06/15 07:40:57;;;;;;;2.25;0.90;;;23.20;91.30;;;;;;5093442;28;20165;-59
2022/06/15 07:43:23;;;;;;;3.55;1.45;;;23.30;91.40;;;;;;5093747;28;20016;-59
2022/06/15 07:45:49;;;;;;;2.33;0.73;;;;;;;;;;5093438;28;20506;-60
2022/06/15 07:51:00;;;;;;;1.70;0.88;;;;;;;;;;5093737;28;20096;-59
2022/06/15 07:53:26;;;;;;;2.15;0.90;;;23.10;91.40;;;;;;5093335;28;20101;-59
2022/06/15 07:55:53;;;;;;;2.33;0.85;;;;;;;;;;5093198;28;20066;-59
2022/06/15 07:58:20;;;;;;;3.47;0.90;;;23.50;91.00;;;;;;5093460;28;20020;-59
2022/06/15 08:00:47;;;;;;;1.33;0.85;;;23.50;90.90;;;;;;5093043;28;20035;-60
2022/06/15 08:03:14;;;;;;;1.95;1.00;;;23.50;90.70;;;;;;5092809;28;20122;-59
2022/06/15 08:05:44;;;;;;;2.17;0.90;;;23.20;90.60;;;;;;5093011;28;20035;-59
2022/06/15 08:08:13;;;;;;;1.63;0.80;;;23.00;90.40;;;;;;5092926;28;20479;-59
2022/06/15 08:10:39;;;;;;;2.78;0.90;;;23.10;90.40;;;;;;5093091;28;20399;-59
2022/06/15 08:13:07;;;;;;;2.08;0.90;;;22.80;90.10;;;;;;5092780;28;20089;-59
2022/06/15 08:15:33;;;;;;;4.25;0.80;;;24.80;54.80;;;;;;5092925;28;20032;-59
2022/06/15 08:18:03;;;;;;;2.35;0.80;;;23.40;59.50;;;;;;5093202;28;20020;-59
2022/06/15 08:20:36;;;;;;;1.50;0.93;;;23.20;54.50;;;;;;5092886;28;20448;-59
2022/06/15 08:23:06;;;;;;;3.70;1.13;;;23.30;90.10;;;;;;5092834;28;20040;-59
2022/06/15 08:25:35;;;;;;;2.33;0.80;;;23.50;90.20;;;;;;5092768;28;20031;-59
2022/06/15 08:28:03;;;;;;;1.43;0.70;;;22.90;90.20;;;;;;5093011;28;20436;-59
2022/06/15 08:30:29;;;;;;;1.88;0.80;;;;;;;;;;5092275;28;20020;-59
2022/06/15 08:32:54;;;;;;;2.28;1.02;;;23.10;69.30;;;;;;5092495;28;20039;-59
2022/06/15 08:35:20;;;;;;;2.60;0.52;;;;;;;;;;5092546;28;20023;-59
2022/06/15 08:37:47;;;;;;;2.72;0.82;;;;;;;;;;5092573;28;20073;-59
2022/06/15 08:40:13;;;;;;;2.40;0.80;;;23.30;54.10;;;;;;5092703;28;20405;-59
2022/06/15 08:42:58;;;;;;;1.77;0.60;;;23.30;89.70;;;;;;5092485;28;20028;-59
2022/06/15 08:45:38;;;;;;;0.95;0.60;;;22.80;90.20;;;;;;5092477;28;20036;-59
2022/06/15 08:48:24;;;;;;;1.58;0.70;;;23.30;90.40;;;;;;5092606;28;20028;-59
2022/06/15 08:50:57;;;;;;;4.57;0.85;;;23.30;55.00;;;;;;5092620;28;20465;-59
2022/06/15 08:53:35;;;;;;;1.58;0.70;;;23.40;90.00;;;;;;5092398;28;20027;-60
2022/06/15 08:56:10;;;;;;;2.50;0.95;;;24.70;57.40;;;;;;5092367;28;20032;-59
2022/06/15 08:58:58;;;;;;;3.28;1.08;;;23.20;90.00;;;;;;5074189;28;20524;-60
2022/06/15 09:01:48;;;;;;;5.03;1.20;;;23.40;90.10;;;;;;5092127;28;20040;-59
2022/06/15 09:04:39;;;;;;;3.80;0.93;;;23.60;52.00;;;;;;5092301;28;20041;-58
2022/06/15 09:07:27;;;;;;;1.88;0.80;;;23.50;62.70;;;;;;5092196;28;20028;-59
2022/06/15 09:10:07;;;;;;;3.13;1.00;;;23.70;90.60;;;;;;5040851;28;20043;-59
2022/06/15 09:13:07;;;;;;;1.38;0.95;;;23.80;52.40;;;;;;5092136;28;20082;-59
2022/06/15 09:15:57;;;;;;;4.32;0.93;;;23.60;90.80;;;;;;5092135;28;20028;-59
2022/06/15 09:18:48;;;;;;;4.25;0.90;;;24.20;91.20;;;;;;5091944;28;20035;-59
2022/06/15 09:21:32;;;;;;;1.85;0.80;;;24.20;90.80;;;;;;5092056;28;20036;-59
2022/06/15 09:24:10;;;;;;;2.03;0.90;;;24.00;55.40;;;;;;5092401;28;20382;-59
2022/06/15 09:26:46;;;;;;;1.67;1.25;;;23.80;90.40;;;;;;5092298;28;20023;-60
2022/06/15 09:29:20;;;;;;;4.13;1.30;;;24.00;90.50;;;;;;5092111;28;20039;-59
2022/06/15 09:32:01;;;;;;;2.85;0.90;;;24.20;51.90;;;;;;5091939;28;20036;-59
2022/06/15 09:34:36;;;;;;;3.38;0.90;;;24.40;90.40;;;;;;5092157;28;20028;-59
2022/06/15 09:37:08;;;;;;;2.97;1.08;;;24.20;90.50;;;;;;5092016;28;20068;-59
2022/06/15 09:39:36;;;;;;;2.22;0.90;;;24.50;90.40;;;;;;5092090;28;20061;-59
2022/06/15 09:42:10;;;;;;;3.75;0.77;;;24.30;90.50;;;;;;5092198;28;20032;-58
2022/06/15 09:44:40;;;;;;;2.40;1.15;;;24.70;90.50;;;;;;5092571;28;20036;-58
2022/06/15 09:47:22;;;;;;;1.60;0.95;;;24.20;90.20;;;;;;5095858;28;20561;-59
2022/06/15 09:50:03;;;;;;;1.23;1.02;;;24.30;90.20;;;;;;5095717;28;20554;-58
2022/06/15 09:52:48;;;;;;;1.35;0.73;;;24.30;90.30;;;;;;5095671;28;20502;-58
2022/06/15 09:55:38;;;;;;;0.90;0.70;;;24.30;51.30;;;;;;5095677;28;20073;-56
2022/06/15 09:58:07;;;;;;;4.65;0.90;;;24.40;54.80;;;;;;5095884;28;20016;-57
2022/06/15 10:00:36;;;;;;;3.33;0.88;;;24.30;84.40;;;;;;5095257;28;20544;-57
2022/06/15 10:03:35;;;;;;;5.07;0.90;;;24.70;90.10;;;;;;5095030;28;20464;-58
2022/06/15 10:06:19;;;;;;;1.73;1.00;;;24.40;89.50;;;;;;5095637;28;20428;-56
2022/06/15 10:08:45;;;;;;;1.30;0.80;;;24.40;74.00;;;;;;5077342;28;20031;-57
2022/06/15 10:11:27;;;;;;;2.33;0.80;;;24.40;88.40;;;;;;5095351;28;20028;-57
2022/06/15 10:13:53;;;;;;;2.33;0.95;;;;;;;;;;5095374;28;20565;-56
2022/06/15 10:16:31;;;;;;;2.28;0.88;;;24.30;89.60;;;;;;5095578;28;20068;-56
2022/06/15 10:18:58;;;;;;;2.90;0.85;;;24.40;53.40;;;;;;5078534;28;20030;-58
2022/06/15 10:21:30;;;;;;;3.33;0.60;;;24.80;89.30;;;;;;5095217;28;20544;-58
2022/06/15 10:24:17;;;;;;;0.90;0.40;;;24.60;50.50;;;;;;5094969;28;20028;-58
2022/06/15 10:27:18;;;;;;;2.10;0.90;;;24.60;50.40;;;;;;5094999;28;20098;-59
2022/06/15 10:29:55;;;;;;;1.10;0.70;;;24.70;53.30;;;;;;5094656;28;20028;-59
2022/06/15 10:32:22;;;;;;;3.35;0.55;;;;;;;;;;5095105;28;20028;-59
2022/06/15 10:34:48;;;;;;;1.58;0.65;;;;;;;;;;5094502;28;20114;-58
2022/06/15 10:37:29;;;;;;;2.13;0.70;;;25.00;89.40;;;;;;5094914;28;20421;-58
2022/06/15 10:40:18;;;;;;;1.30;0.80;;;24.60;72.00;;;;;;5094698;28;20028;-59
2022/06/15 10:42:48;;;;;;;1.63;0.80;;;24.90;90.10;;;;;;5094718;28;20110;-59
2022/06/15 10:45:54;;;;;;;1.05;0.40;;;24.40;90.10;;;;;;5094766;28;20024;-59
2022/06/15 10:48:34;;;;;;;1.08;0.77;;;24.70;53.30;;;;;;5038824;28;20070;-58
2022/06/15 10:51:13;;;;;;;1.58;0.80;;;24.40;89.20;;;;;;5094650;28;20059;-58
2022/06/15 10:53:51;;;;;;;1.25;0.55;;;24.80;50.00;;;;;;5094414;28;20032;-56
2022/06/15 11:02:06;;;;;;;1.77;0.57;;;24.90;88.40;;;;;;5094667;28;20553;-59
2022/06/15 11:02:31;;;;;;;0.77;0.50;;;25.10;78.30;;;;;;5094008;28;20048;-59
2022/06/15 11:05:04;;;;;;;2.53;0.73;;;25.30;87.60;;;;;;5094886;28;20023;-58
2022/06/15 11:07:55;;;;;;;0.75;0.50;;;25.20;90.10;;;;;;5094785;28;20027;-59
2022/06/15 11:10:34;;;;;;;2.35;0.70;;;25.20;50.10;;;;;;5080364;28;20038;-59
2022/06/15 11:13:03;;;;;;;0.82;0.50;;;25.00;66.30;;;;;;5093967;28;20060;-57
2022/06/15 11:18:37;;;;;;;1.95;0.82;;;25.00;73.90;;;;;;5094176;28;20080;-59
2022/06/15 11:21:19;;;;;;;1.48;0.70;;;25.40;49.90;;;;;;5093410;28;20410;-59
2022/06/15 11:23:48;;;;;;;2.67;0.60;;;25.00;88.90;;;;;;5093808;28;20028;-59
2022/06/15 11:26:59;;;;;;;3.50;0.52;;;25.00;89.10;;;;;;5093518;28;20052;-58
2022/06/15 11:29:43;;;;;;;1.02;0.60;;;25.40;88.20;;;;;;5093522;28;20030;-59
2022/06/15 11:32:38;;;;;;;0.98;0.50;;;24.70;55.40;;;;;;5093835;28;20020;-59
2022/06/15 11:35:12;;;;;;;2.40;0.60;;;25.10;89.40;;;;;;5093562;28;20032;-59
2022/06/15 11:37:47;;;;;;;3.10;0.63;;;25.50;89.40;;;;;;5093555;28;20028;-58
2022/06/15 11:40:39;;;;;;;0.88;0.60;;;24.90;89.40;;;;;;5093587;28;20036;-58
2022/06/15 11:43:32;;;;;;;2.33;0.57;;;25.10;49.50;;;;;;5093556;28;20028;-59
2022/06/15 11:45:58;;;;;;;1.73;0.70;;;;;;;;;;5089782;28;20115;-59
2022/06/15 11:48:32;;;;;;;2.72;0.60;;;25.20;89.10;;;;;;5093408;28;20462;-59
2022/06/15 11:51:11;;;;;;;2.10;0.40;;;25.30;89.00;;;;;;5093464;28;20024;-55
2022/06/15 11:54:06;;;;;;;1.33;0.68;;;25.40;66.20;;;;;;5093489;28;20020;-55
2022/06/15 11:56:48;;;;;;;2.58;0.50;;;25.20;89.30;;;;;;5093509;28;20055;-57
2022/06/15 11:59:58;;;;;;;2.58;0.70;;;24.80;89.20;;;;;;5092950;28;20028;-57
2022/06/15 12:02:40;;;;;;;1.90;0.52;;;25.60;89.50;;;;;;5092960;28;20051;-56
2022/06/15 12:05:21;;;;;;;1.42;0.60;;;25.10;49.20;;;;;;5093200;28;20039;-55
2022/06/15 12:07:59;;;;;;;0.93;0.70;;;25.10;86.00;;;;;;5092497;28;20034;-56
2022/06/15 12:10:39;;;;;;;1.10;0.70;;;25.20;49.20;;;;;;5093162;28;20028;-58
2022/06/15 12:13:17;;;;;;;0.40;0.40;;;25.20;71.20;;;;;;5093349;28;20031;-58
2022/06/15 12:15:57;;;;;;;1.83;0.50;;;25.60;64.20;;;;;;5093089;28;20503;-59
2022/06/15 12:18:52;;;;;;;1.65;0.70;;;25.20;49.30;;;;;;5092973;28;20047;-58
2022/06/15 12:21:45;;;;;;;1.35;0.50;;;25.20;88.80;;;;;;5092735;28;20043;-58
2022/06/15 12:24:21;;;;;;;1.40;0.60;;;25.20;49.20;;;;;;5092789;28;20039;-58
2022/06/15 12:27:07;;;;;;;1.25;0.57;;;25.30;83.30;;;;;;5093179;28;20016;-56
2022/06/15 12:29:39;;;;;;;1.88;0.60;;;25.20;70.10;;;;;;5092564;28;20107;-59
2022/06/15 12:32:32;;;;;;;3.85;0.50;;;25.30;86.70;;;;;;5092653;28;20034;-58
2022/06/15 12:34:58;;;;;;;1.08;0.80;;;;;;;;;;5092683;28;20028;-59
2022/06/15 12:37:41;;;;;;;1.33;0.50;;;24.80;87.20;;;;;;5092866;28;20096;-58
2022/06/15 12:40:07;;;;;;;0.60;0.52;;;;;;;;;;5092568;28;20028;-59
2022/06/15 12:42:33;;;;;;;1.55;0.50;;;25.50;88.10;;;;;;5092529;28;20344;-59
2022/06/15 12:45:15;;;;;;;1.42;0.70;;;25.50;80.70;;;;;;5092529;28;20103;-59
2022/06/15 12:47:47;;;;;;;1.23;0.60;;;25.00;52.20;;;;;;5092319;28;20115;-55
2022/06/15 12:50:23;;;;;;;0.75;0.60;;;25.30;52.70;;;;;;5092452;28;20020;-56
2022/06/15 12:53:09;;;;;;;0.65;0.50;;;25.50;59.90;;;;;;5092451;28;20023;-56
2022/06/15 12:55:45;;;;;;;2.25;0.80;;;25.60;88.70;;;;;;5092342;28;20034;-56
2022/06/15 12:58:26;;;;;;;1.30;0.57;;;25.70;88.30;;;;;;5092405;28;20028;-57
2022/06/15 13:00:59;;;;;;;0.60;0.43;;;25.40;87.50;;;;;;5092052;28;20040;-57
2022/06/15 13:03:53;;;;;;;1.17;0.40;;;25.30;51.50;;;;;;5092021;28;20040;-59
2022/06/15 13:06:41;;;;;;;0.77;0.57;;;25.60;87.70;;;;;;5092623;28;20367;-57
2022/06/15 13:09:11;;;;;;;1.33;0.60;;;;;;;;;;5092177;28;20115;-57
2022/06/15 13:12:01;;;;;;;3.00;0.88;;;25.50;82.40;;;;;;5092158;28;20356;-57
2022/06/15 13:14:30;;;;;;;;;;;25.30;49.50;;;;;;5092860;28;20076;-57
2022/06/15 13:17:17;;;;;;;0.80;0.40;;;25.50;87.60;;;;;;5092165;28;19910;-57
2022/06/15 13:19:52;;;;;;;1.17;0.70;;;25.30;51.90;;;;;;5094686;28;20032;-57
2022/06/15 13:22:26;;;;;;;1.80;0.93;;;24.80;87.70;;;;;;5096347;28;20027;-57
2022/06/15 13:25:03;;;;;;;1.40;0.75;;;25.30;51.70;;;;;;5096313;28;20036;-56
2022/06/15 13:27:36;;;;;;;1.25;0.50;;;25.30;51.80;;;;;;5096147;28;20039;-56
2022/06/15 13:30:23;;;;;;;1.05;0.50;;;25.70;87.70;;;;;;5096131;28;20032;-57
2022/06/15 13:33:07;;;;;;;2.13;0.60;;;24.80;76.20;;;;;;5096086;28;20035;-56
2022/06/15 13:35:38;;;;;;;2.60;0.70;;;25.10;71.00;;;;;;5096014;28;20028;-57
2022/06/15 13:38:26;;;;;;;2.80;0.60;;;25.40;87.90;;;;;;5096044;28;20032;-56
2022/06/15 13:40:58;;;;;;;1.00;0.63;;;25.40;48.70;;;;;;5096145;28;20051;-58
2022/06/15 13:43:46;;;;;;;1.55;0.93;;;25.10;87.50;;;;;;5095754;28;20024;-58
2022/06/15 13:46:26;;;;;;;1.48;0.80;;;25.00;87.20;;;;;;5095697;28;20672;-58
2022/06/15 13:49:05;;;;;;;1.25;0.60;;;25.30;87.00;;;;;;5095444;28;20119;-58
2022/06/15 13:51:46;;;;;;;1.10;0.70;;;25.70;87.20;;;;;;5095821;28;20359;-58